AirNav   Pilot Hours Calculator
 
 1247 users online  

09S Sullivan Lake State Airport
Metaline Falls, Washington, USA

GOING TO METALINE FALLS?


FAA INFORMATION EFFECTIVE 09 SEPTEMBER 2021

Location

FAA Identifier: 09S
Lat/Long: 48-50-27.2230N 117-17-02.3490W
48-50.453717N 117-17.039150W
48.8408953,-117.2839858
(estimated)
Elevation: 2614 ft. / 797 m (estimated)
Variation: 20E (1985)
From city: 3 miles SE of METALINE FALLS, WA
Time zone: UTC -7 (UTC -8 during Standard Time)
Zip code: 99153

Airport Operations

Airport use: Open to the public
Activation date: 12/1938
Control tower: no
ARTCC: SEATTLE CENTER
FSS: SEATTLE FLIGHT SERVICE STATION
NOTAMs facility: SEA (NOTAM-D service available)
Attendance: UNATNDD
Wind indicator: yes, 2 WIND SOCKS, ONE ON EACH RWY END
Segmented circle: no

Airport Communications

CTAF: 122.9

Nearby radio navigation aids

NDB name  Hdg/Dist  Freq  Var  ID
IONE012/9.437921EION .. --- -.

Airport Services

Airframe service: NONE
Powerplant service: NONE
Bottled oxygen: NONE
Bulk oxygen: NONE

Runway Information

Runway 16/34

Dimensions: 1765 x 100 ft. / 538 x 30 m
Surface: turf, in good condition
RUNWAY 16  RUNWAY 34
Latitude: 48-50.598817N48-50.308617N
Longitude: 117-17.039150W117-17.039167W
Elevation: 2621.0 ft.2603.0 ft.
Traffic pattern: leftleft
Obstructions: 200 ft. trees, 1700 ft. from runway, 45 ft. both sides of centerline, 8:1 slope to clear15 ft. sign, 205 ft. from runway, 146 ft. right of centerline, 13:1 slope to clear

Airport Ownership and Management from official FAA records

Ownership: Publicly-owned
Owner: WSDOT AVIATION DIVISION
7702 TERMINAL STREET SW
TUMWATER, WA 98501-7264
Phone (800) 552-0666
Manager: G. PAUL WOLF
7702 TERMINAL STREET SW
TUMWATER, WA 98501-7264
Phone (360) 618-2477

Airport Operational Statistics

Aircraft operations: avg 25/month *
100% transient general aviation
* for 12-month period ending 31 December 2020

Additional Remarks

ARPT CLSD 1 OCT TO 1 JUN EXC FOR APPROVED MIL & PUBLIC SAFETY/LAW ENFORCEMENT HELI OPS.
FOR CD CTC SEATTLE ARTCC AT 253-351-3694.
VEHICLES, PEDESTRIANS, AND ANIMALS ON AND INVOF ARPT.
TREES BOTH SIDES IN TRANSITION SFCS.
GROUND DROPS RAPIDLY BEYOND RY 16/34 ENDS.
WATCH FOR GROUND SQUIRREL HOLES IN RY.
CTC WA STATE AVIATION DIVISION 360-709-8015 OR 1-800-552-0666 WA AREA FOR FACILITY INFO PRIOR TO USE.
RY MARKED WITH REFLECTORS DURING DATES ARPT IS OPEN.
FOR ACFT ACCIDENTS/INCIDENTS CTC WA STATE EMERGENCY OPERATIONS CENTER 800-258-5990.

Instrument Procedures

There are no published instrument procedures at 09S.

Some nearby airports with instrument procedures:

65S - Boundary County Airport (40 nm E)
KSZT - Sandpoint Airport (43 nm SE)
KDEW - Deer Park Airport (53 nm S)
KCOE - Coeur d'Alene Airport - Pappy Boyington Field (67 nm S)
KSFF - Felts Field Airport (69 nm S)
 
Loc | Ops | Rwys | IFR | FBO | Links
Com | Nav | Svcs | Stats | Notes
Area around 09S (Sullivan Lake State Airport)
 
Road maps at: MapQuest Bing Google
 
Aerial photo
WARNING: Photo may not be current or correct
Aerial photo of 09S (Sullivan Lake State Airport)
Photo taken 28-Jun-2013
looking northwest.

Do you have a better or more recent aerial photo of Sullivan Lake State Airport that you would like to share? If so, please send us your photo.

 
Sectional chart

 
Airport distance calculator
Flying to Sullivan Lake State Airport? Find the distance to fly.

From to 09S

Sunrise and sunset
Times for 16-Sep-2021
 Local
(UTC-7)
 Zulu
(UTC)
Morning civil twilight05:5712:57
Sunrise06:2813:28
Sunset19:0002:00
Evening civil twilight19:3102:31

Current date and time
Zulu (UTC)  16-Sep-2021 22:56:36
Local (UTC-7)  16-Sep-2021 15:56:36
 
METAR
K63S 
30nm SW 
162235Z AUTO 00000KT 10SM CLR 18/M06 A3008 RMK A01
CYCG 
30nm NW 
162200Z VRB03KT 15SM FEW065 FEW240 18/M04 A3007 RMK CU1CC1 CC TR SLP187 DENSITY ALT 2300FT
CWJR 
34nm NE 
162200Z AUTO 30004KT 18/M00 RMK AO1 SLP194 T01801003 56003
CWNM 
40nm N 
162200Z AUTO 26005KT 18/M01 RMK AO1 SLP187 T01801009 58008
K65S 
40nm E 
162230Z AUTO 20007G14KT 10SM CLR 17/M03 A3006 RMK AO2
KSZT 
43nm SE 
162235Z AUTO 15008KT 10SM CLR 18/M05 A3007 RMK AO2
TAF
CYCG 
30nm NW 
161838Z 1619/1704 VRB03KT P6SM FEW060 BECMG 1620/1622 32008KT FM170300 VRB03KT P6SM SCT180 RMK NXT FCST BY 170100Z
NOTAMs
Click for the latest NOTAMs
NOTAMs are issued by the DoD/FAA and will open in a separate window not controlled by AirNav.

 

 
 

Would you like to see your business listed on this page?

 If your business provides an interesting product or service to pilots, flight crews, aircraft, or users of the Sullivan Lake State Airport, you should consider listing it here.  To start the listing process, click on the button below
 
Add a business
 

Other Pages about Sullivan Lake State Airport

www.wsdot.wa.gov/...
skychickadventures.com/travel-images.asp?id=85
 
Update a link
 
Copyright © AirNav, LLC. All rights reserved. Privacy Policy  Contact